sensor_id;sensor_type;location;lat;lon;timestamp;P1;durP1;ratioP1;P2;durP2;ratioP2
25349;SDS011;13302;48.796;11.978;2023-03-05T00:00:26;20.20;;;16.53;;
25349;SDS011;13302;48.796;11.978;2023-03-05T00:03:13;19.97;;;16.90;;
25349;SDS011;13302;48.796;11.978;2023-03-05T00:06:00;18.10;;;16.13;;
25349;SDS011;13302;48.796;11.978;2023-03-05T00:08:48;20.97;;;17.37;;
25349;SDS011;13302;48.796;11.978;2023-03-05T00:11:35;18.10;;;15.27;;
25349;SDS011;13302;48.796;11.978;2023-03-05T00:14:22;21.70;;;16.23;;
25349;SDS011;13302;48.796;11.978;2023-03-05T00:17:09;18.20;;;15.73;;
25349;SDS011;13302;48.796;11.978;2023-03-05T00:19:57;17.93;;;15.97;;
25349;SDS011;13302;48.796;11.978;2023-03-05T00:22:46;19.67;;;16.83;;
25349;SDS011;13302;48.796;11.978;2023-03-05T00:25:34;18.73;;;16.30;;
25349;SDS011;13302;48.796;11.978;2023-03-05T00:28:22;21.27;;;17.07;;
25349;SDS011;13302;48.796;11.978;2023-03-05T00:31:09;19.47;;;16.27;;
25349;SDS011;13302;48.796;11.978;2023-03-05T00:33:58;18.33;;;16.37;;
25349;SDS011;13302;48.796;11.978;2023-03-05T00:36:48;18.90;;;16.67;;
25349;SDS011;13302;48.796;11.978;2023-03-05T00:39:37;18.27;;;15.63;;
25349;SDS011;13302;48.796;11.978;2023-03-05T00:42:24;20.77;;;16.87;;
25349;SDS011;13302;48.796;11.978;2023-03-05T00:45:11;17.60;;;15.70;;
25349;SDS011;13302;48.796;11.978;2023-03-05T00:47:58;20.13;;;16.07;;
25349;SDS011;13302;48.796;11.978;2023-03-05T00:50:46;20.37;;;17.37;;
25349;SDS011;13302;48.796;11.978;2023-03-05T00:53:33;22.57;;;17.87;;
25349;SDS011;13302;48.796;11.978;2023-03-05T00:56:21;21.33;;;17.63;;
25349;SDS011;13302;48.796;11.978;2023-03-05T00:59:08;21.27;;;18.17;;
25349;SDS011;13302;48.796;11.978;2023-03-05T01:01:55;20.60;;;17.30;;
25349;SDS011;13302;48.796;11.978;2023-03-05T01:04:42;21.03;;;17.60;;
25349;SDS011;13302;48.796;11.978;2023-03-05T01:07:32;22.33;;;17.63;;
25349;SDS011;13302;48.796;11.978;2023-03-05T01:10:21;21.87;;;17.83;;
25349;SDS011;13302;48.796;11.978;2023-03-05T01:13:12;21.50;;;17.27;;
25349;SDS011;13302;48.796;11.978;2023-03-05T01:15:59;22.47;;;17.33;;
25349;SDS011;13302;48.796;11.978;2023-03-05T01:18:46;22.53;;;17.50;;
25349;SDS011;13302;48.796;11.978;2023-03-05T01:21:34;20.20;;;17.17;;
25349;SDS011;13302;48.796;11.978;2023-03-05T01:24:22;21.20;;;17.93;;
25349;SDS011;13302;48.796;11.978;2023-03-05T01:27:09;21.10;;;17.30;;
25349;SDS011;13302;48.796;11.978;2023-03-05T01:29:56;21.47;;;18.27;;
25349;SDS011;13302;48.796;11.978;2023-03-05T01:32:43;23.00;;;17.30;;
25349;SDS011;13302;48.796;11.978;2023-03-05T01:35:31;23.40;;;17.67;;
25349;SDS011;13302;48.796;11.978;2023-03-05T01:38:18;20.83;;;17.07;;
25349;SDS011;13302;48.796;11.978;2023-03-05T01:41:06;22.13;;;18.73;;
25349;SDS011;13302;48.796;11.978;2023-03-05T01:43:53;20.47;;;17.70;;
25349;SDS011;13302;48.796;11.978;2023-03-05T01:46:40;23.47;;;19.20;;
25349;SDS011;13302;48.796;11.978;2023-03-05T01:49:31;22.37;;;18.93;;
25349;SDS011;13302;48.796;11.978;2023-03-05T01:52:22;21.97;;;18.87;;
25349;SDS011;13302;48.796;11.978;2023-03-05T01:55:12;22.70;;;18.87;;
25349;SDS011;13302;48.796;11.978;2023-03-05T01:58:03;21.77;;;18.30;;
25349;SDS011;13302;48.796;11.978;2023-03-05T02:00:55;20.50;;;17.47;;
25349;SDS011;13302;48.796;11.978;2023-03-05T02:03:43;22.23;;;18.00;;
25349;SDS011;13302;48.796;11.978;2023-03-05T02:06:30;21.13;;;18.10;;
25349;SDS011;13302;48.796;11.978;2023-03-05T02:09:18;23.90;;;18.50;;
25349;SDS011;13302;48.796;11.978;2023-03-05T02:12:09;21.03;;;17.63;;
25349;SDS011;13302;48.796;11.978;2023-03-05T02:14:58;22.30;;;18.50;;
25349;SDS011;13302;48.796;11.978;2023-03-05T02:17:45;22.93;;;18.73;;
25349;SDS011;13302;48.796;11.978;2023-03-05T02:20:42;23.13;;;18.03;;
25349;SDS011;13302;48.796;11.978;2023-03-05T02:23:32;22.57;;;18.63;;
25349;SDS011;13302;48.796;11.978;2023-03-05T02:26:22;22.50;;;18.30;;
25349;SDS011;13302;48.796;11.978;2023-03-05T02:29:09;24.67;;;19.23;;
25349;SDS011;13302;48.796;11.978;2023-03-05T02:32:02;23.93;;;18.07;;
25349;SDS011;13302;48.796;11.978;2023-03-05T02:34:49;22.27;;;18.57;;
25349;SDS011;13302;48.796;11.978;2023-03-05T02:37:37;24.60;;;18.97;;
25349;SDS011;13302;48.796;11.978;2023-03-05T02:40:25;24.60;;;18.30;;
25349;SDS011;13302;48.796;11.978;2023-03-05T02:43:12;22.60;;;18.17;;
25349;SDS011;13302;48.796;11.978;2023-03-05T02:45:59;22.10;;;18.30;;
25349;SDS011;13302;48.796;11.978;2023-03-05T02:48:46;22.50;;;19.40;;
25349;SDS011;13302;48.796;11.978;2023-03-05T02:51:33;23.03;;;18.30;;
25349;SDS011;13302;48.796;11.978;2023-03-05T02:54:20;23.53;;;18.90;;
25349;SDS011;13302;48.796;11.978;2023-03-05T02:57:07;24.53;;;19.83;;
25349;SDS011;13302;48.796;11.978;2023-03-05T02:59:54;22.37;;;18.27;;
25349;SDS011;13302;48.796;11.978;2023-03-05T03:02:41;22.77;;;18.70;;
25349;SDS011;13302;48.796;11.978;2023-03-05T03:05:29;23.40;;;19.13;;
25349;SDS011;13302;48.796;11.978;2023-03-05T03:08:16;23.23;;;18.97;;
25349;SDS011;13302;48.796;11.978;2023-03-05T03:11:04;24.80;;;19.33;;
25349;SDS011;13302;48.796;11.978;2023-03-05T03:13:52;25.90;;;18.97;;
25349;SDS011;13302;48.796;11.978;2023-03-05T03:16:39;22.03;;;18.43;;
25349;SDS011;13302;48.796;11.978;2023-03-05T03:19:26;25.50;;;19.40;;
25349;SDS011;13302;48.796;11.978;2023-03-05T03:22:14;23.43;;;18.77;;
25349;SDS011;13302;48.796;11.978;2023-03-05T03:25:02;24.63;;;18.67;;
25349;SDS011;13302;48.796;11.978;2023-03-05T03:27:49;24.40;;;18.83;;
25349;SDS011;13302;48.796;11.978;2023-03-05T03:30:36;23.43;;;18.70;;
25349;SDS011;13302;48.796;11.978;2023-03-05T03:33:23;23.80;;;19.73;;
25349;SDS011;13302;48.796;11.978;2023-03-05T03:36:10;24.57;;;19.70;;
25349;SDS011;13302;48.796;11.978;2023-03-05T03:38:58;24.93;;;19.57;;
25349;SDS011;13302;48.796;11.978;2023-03-05T03:41:46;24.93;;;18.73;;
25349;SDS011;13302;48.796;11.978;2023-03-05T03:44:35;23.07;;;18.53;;
25349;SDS011;13302;48.796;11.978;2023-03-05T03:47:22;25.73;;;19.23;;
25349;SDS011;13302;48.796;11.978;2023-03-05T03:50:09;24.67;;;19.27;;
25349;SDS011;13302;48.796;11.978;2023-03-05T03:52:56;26.63;;;20.03;;
25349;SDS011;13302;48.796;11.978;2023-03-05T03:55:43;23.37;;;19.47;;
25349;SDS011;13302;48.796;11.978;2023-03-05T03:58:32;25.80;;;19.23;;
25349;SDS011;13302;48.796;11.978;2023-03-05T04:01:19;23.57;;;18.70;;
25349;SDS011;13302;48.796;11.978;2023-03-05T04:04:07;23.80;;;20.60;;
25349;SDS011;13302;48.796;11.978;2023-03-05T04:06:55;24.67;;;19.10;;
25349;SDS011;13302;48.796;11.978;2023-03-05T04:09:42;25.97;;;19.73;;
25349;SDS011;13302;48.796;11.978;2023-03-05T04:12:29;26.00;;;20.10;;
25349;SDS011;13302;48.796;11.978;2023-03-05T04:15:16;22.60;;;18.80;;
25349;SDS011;13302;48.796;11.978;2023-03-05T04:18:03;25.87;;;19.50;;
25349;SDS011;13302;48.796;11.978;2023-03-05T04:20:50;26.50;;;19.57;;
25349;SDS011;13302;48.796;11.978;2023-03-05T04:23:38;23.30;;;17.97;;
25349;SDS011;13302;48.796;11.978;2023-03-05T04:26:25;24.30;;;19.77;;
25349;SDS011;13302;48.796;11.978;2023-03-05T04:29:12;26.57;;;20.43;;
25349;SDS011;13302;48.796;11.978;2023-03-05T04:31:59;22.77;;;18.67;;
25349;SDS011;13302;48.796;11.978;2023-03-05T04:34:47;26.33;;;19.60;;
25349;SDS011;13302;48.796;11.978;2023-03-05T04:37:34;27.17;;;19.97;;
25349;SDS011;13302;48.796;11.978;2023-03-05T04:40:21;24.30;;;19.63;;
25349;SDS011;13302;48.796;11.978;2023-03-05T04:43:08;25.10;;;20.13;;
25349;SDS011;13302;48.796;11.978;2023-03-05T04:45:55;25.27;;;19.63;;
25349;SDS011;13302;48.796;11.978;2023-03-05T04:48:43;27.67;;;20.27;;
25349;SDS011;13302;48.796;11.978;2023-03-05T04:51:30;23.30;;;19.03;;
25349;SDS011;13302;48.796;11.978;2023-03-05T04:54:17;25.83;;;20.80;;
25349;SDS011;13302;48.796;11.978;2023-03-05T04:57:04;27.37;;;19.97;;
25349;SDS011;13302;48.796;11.978;2023-03-05T04:59:51;26.60;;;19.67;;
25349;SDS011;13302;48.796;11.978;2023-03-05T05:02:39;27.07;;;20.03;;
25349;SDS011;13302;48.796;11.978;2023-03-05T05:05:30;25.73;;;20.63;;
25349;SDS011;13302;48.796;11.978;2023-03-05T05:08:17;25.47;;;19.40;;
25349;SDS011;13302;48.796;11.978;2023-03-05T05:11:05;25.97;;;20.50;;
25349;SDS011;13302;48.796;11.978;2023-03-05T05:13:53;26.47;;;20.27;;
25349;SDS011;13302;48.796;11.978;2023-03-05T05:16:40;27.97;;;19.33;;
25349;SDS011;13302;48.796;11.978;2023-03-05T05:19:27;25.23;;;20.33;;
25349;SDS011;13302;48.796;11.978;2023-03-05T05:22:14;26.80;;;19.87;;
25349;SDS011;13302;48.796;11.978;2023-03-05T05:25:01;26.30;;;20.30;;
25349;SDS011;13302;48.796;11.978;2023-03-05T05:27:49;23.73;;;19.37;;
25349;SDS011;13302;48.796;11.978;2023-03-05T05:30:36;25.53;;;20.27;;
25349;SDS011;13302;48.796;11.978;2023-03-05T05:33:23;24.67;;;19.77;;
25349;SDS011;13302;48.796;11.978;2023-03-05T05:36:11;29.20;;;20.57;;
25349;SDS011;13302;48.796;11.978;2023-03-05T05:39:00;26.97;;;20.50;;
25349;SDS011;13302;48.796;11.978;2023-03-05T05:41:51;24.93;;;20.23;;
25349;SDS011;13302;48.796;11.978;2023-03-05T05:44:38;27.23;;;19.70;;
25349;SDS011;13302;48.796;11.978;2023-03-05T05:47:25;25.00;;;19.87;;
25349;SDS011;13302;48.796;11.978;2023-03-05T05:50:12;27.63;;;20.27;;
25349;SDS011;13302;48.796;11.978;2023-03-05T05:53:00;26.43;;;19.60;;
25349;SDS011;13302;48.796;11.978;2023-03-05T05:55:47;29.57;;;19.73;;
25349;SDS011;13302;48.796;11.978;2023-03-05T05:58:35;22.97;;;18.80;;
25349;SDS011;13302;48.796;11.978;2023-03-05T06:01:27;24.30;;;19.73;;
25349;SDS011;13302;48.796;11.978;2023-03-05T06:04:16;23.03;;;19.30;;
25349;SDS011;13302;48.796;11.978;2023-03-05T06:07:03;26.90;;;20.60;;
25349;SDS011;13302;48.796;11.978;2023-03-05T06:09:50;24.50;;;20.13;;
25349;SDS011;13302;48.796;11.978;2023-03-05T06:12:37;29.23;;;20.83;;
25349;SDS011;13302;48.796;11.978;2023-03-05T06:15:25;25.90;;;20.07;;
25349;SDS011;13302;48.796;11.978;2023-03-05T06:18:11;26.97;;;20.23;;
25349;SDS011;13302;48.796;11.978;2023-03-05T06:21:00;25.53;;;19.83;;
25349;SDS011;13302;48.796;11.978;2023-03-05T06:23:49;25.33;;;20.23;;
25349;SDS011;13302;48.796;11.978;2023-03-05T06:26:36;28.33;;;19.43;;
25349;SDS011;13302;48.796;11.978;2023-03-05T06:29:24;24.97;;;20.53;;
25349;SDS011;13302;48.796;11.978;2023-03-05T06:32:11;26.87;;;19.10;;
25349;SDS011;13302;48.796;11.978;2023-03-05T06:34:58;25.20;;;20.07;;
25349;SDS011;13302;48.796;11.978;2023-03-05T06:37:45;26.73;;;20.23;;
25349;SDS011;13302;48.796;11.978;2023-03-05T06:40:32;27.03;;;19.77;;
25349;SDS011;13302;48.796;11.978;2023-03-05T06:43:19;26.87;;;21.23;;
25349;SDS011;13302;48.796;11.978;2023-03-05T06:46:17;27.77;;;20.73;;
25349;SDS011;13302;48.796;11.978;2023-03-05T06:49:08;26.00;;;19.80;;
25349;SDS011;13302;48.796;11.978;2023-03-05T06:51:56;27.30;;;20.17;;
25349;SDS011;13302;48.796;11.978;2023-03-05T06:54:43;27.07;;;20.47;;
25349;SDS011;13302;48.796;11.978;2023-03-05T06:57:29;28.53;;;20.30;;
25349;SDS011;13302;48.796;11.978;2023-03-05T07:00:16;23.30;;;18.93;;
25349;SDS011;13302;48.796;11.978;2023-03-05T07:03:04;29.27;;;20.93;;
25349;SDS011;13302;48.796;11.978;2023-03-05T07:05:51;26.20;;;19.57;;
25349;SDS011;13302;48.796;11.978;2023-03-05T07:08:38;27.37;;;20.97;;
25349;SDS011;13302;48.796;11.978;2023-03-05T07:11:25;27.63;;;21.33;;
25349;SDS011;13302;48.796;11.978;2023-03-05T07:14:12;29.13;;;20.73;;
25349;SDS011;13302;48.796;11.978;2023-03-05T07:16:59;24.83;;;19.90;;
25349;SDS011;13302;48.796;11.978;2023-03-05T07:19:46;30.10;;;20.77;;
25349;SDS011;13302;48.796;11.978;2023-03-05T07:22:33;28.80;;;20.43;;
25349;SDS011;13302;48.796;11.978;2023-03-05T07:25:23;28.60;;;20.40;;
25349;SDS011;13302;48.796;11.978;2023-03-05T07:28:10;27.27;;;20.60;;
25349;SDS011;13302;48.796;11.978;2023-03-05T07:30:57;26.80;;;20.63;;
25349;SDS011;13302;48.796;11.978;2023-03-05T07:33:47;27.03;;;20.57;;
25349;SDS011;13302;48.796;11.978;2023-03-05T07:36:34;26.50;;;19.70;;
25349;SDS011;13302;48.796;11.978;2023-03-05T07:39:23;25.73;;;20.80;;
25349;SDS011;13302;48.796;11.978;2023-03-05T07:42:10;26.50;;;19.73;;
25349;SDS011;13302;48.796;11.978;2023-03-05T07:45:10;26.53;;;20.00;;
25349;SDS011;13302;48.796;11.978;2023-03-05T07:47:57;27.70;;;20.50;;
25349;SDS011;13302;48.796;11.978;2023-03-05T07:50:44;28.23;;;20.60;;
25349;SDS011;13302;48.796;11.978;2023-03-05T07:53:31;28.43;;;20.80;;
25349;SDS011;13302;48.796;11.978;2023-03-05T07:56:22;26.80;;;19.80;;
25349;SDS011;13302;48.796;11.978;2023-03-05T07:59:11;29.37;;;21.20;;
25349;SDS011;13302;48.796;11.978;2023-03-05T08:01:59;26.87;;;20.10;;
25349;SDS011;13302;48.796;11.978;2023-03-05T08:04:46;28.53;;;20.83;;
25349;SDS011;13302;48.796;11.978;2023-03-05T08:07:33;25.37;;;20.13;;
25349;SDS011;13302;48.796;11.978;2023-03-05T08:10:20;27.83;;;21.07;;
25349;SDS011;13302;48.796;11.978;2023-03-05T08:13:07;28.43;;;20.60;;
25349;SDS011;13302;48.796;11.978;2023-03-05T08:15:54;27.87;;;20.47;;
25349;SDS011;13302;48.796;11.978;2023-03-05T08:18:41;27.50;;;20.20;;
25349;SDS011;13302;48.796;11.978;2023-03-05T08:21:30;28.80;;;20.20;;
25349;SDS011;13302;48.796;11.978;2023-03-05T08:24:19;30.67;;;21.07;;
25349;SDS011;13302;48.796;11.978;2023-03-05T08:27:06;30.53;;;21.93;;
25349;SDS011;13302;48.796;11.978;2023-03-05T08:29:53;27.40;;;19.50;;
25349;SDS011;13302;48.796;11.978;2023-03-05T08:32:40;28.37;;;20.20;;
25349;SDS011;13302;48.796;11.978;2023-03-05T08:35:28;26.57;;;19.50;;
25349;SDS011;13302;48.796;11.978;2023-03-05T08:38:15;26.57;;;18.93;;
25349;SDS011;13302;48.796;11.978;2023-03-05T08:41:05;25.80;;;19.67;;
25349;SDS011;13302;48.796;11.978;2023-03-05T08:43:52;27.80;;;20.67;;
25349;SDS011;13302;48.796;11.978;2023-03-05T08:46:39;24.50;;;19.10;;
25349;SDS011;13302;48.796;11.978;2023-03-05T08:49:27;24.47;;;19.10;;
25349;SDS011;13302;48.796;11.978;2023-03-05T08:52:14;27.60;;;20.70;;
25349;SDS011;13302;48.796;11.978;2023-03-05T08:55:01;26.30;;;19.40;;
25349;SDS011;13302;48.796;11.978;2023-03-05T08:57:48;29.10;;;20.33;;
25349;SDS011;13302;48.796;11.978;2023-03-05T09:00:35;25.13;;;20.07;;
25349;SDS011;13302;48.796;11.978;2023-03-05T09:03:22;24.63;;;19.43;;
25349;SDS011;13302;48.796;11.978;2023-03-05T09:06:09;25.97;;;19.77;;
25349;SDS011;13302;48.796;11.978;2023-03-05T09:08:58;27.77;;;19.87;;
25349;SDS011;13302;48.796;11.978;2023-03-05T09:11:45;25.87;;;19.23;;
25349;SDS011;13302;48.796;11.978;2023-03-05T09:14:31;29.70;;;19.93;;
25349;SDS011;13302;48.796;11.978;2023-03-05T09:17:18;24.90;;;18.57;;
25349;SDS011;13302;48.796;11.978;2023-03-05T09:20:06;27.07;;;19.80;;
25349;SDS011;13302;48.796;11.978;2023-03-05T09:22:54;28.43;;;20.13;;
25349;SDS011;13302;48.796;11.978;2023-03-05T09:25:41;26.13;;;19.90;;
25349;SDS011;13302;48.796;11.978;2023-03-05T09:28:28;27.77;;;20.80;;
25349;SDS011;13302;48.796;11.978;2023-03-05T09:31:15;30.10;;;20.90;;
25349;SDS011;13302;48.796;11.978;2023-03-05T09:34:03;28.27;;;21.57;;
25349;SDS011;13302;48.796;11.978;2023-03-05T09:36:51;31.17;;;20.47;;
25349;SDS011;13302;48.796;11.978;2023-03-05T09:39:38;29.27;;;20.80;;
25349;SDS011;13302;48.796;11.978;2023-03-05T09:45:29;27.03;;;20.80;;
25349;SDS011;13302;48.796;11.978;2023-03-05T09:51:38;27.87;;;20.67;;
25349;SDS011;13302;48.796;11.978;2023-03-05T09:54:29;31.23;;;20.60;;
25349;SDS011;13302;48.796;11.978;2023-03-05T09:57:22;30.83;;;21.53;;
25349;SDS011;13302;48.796;11.978;2023-03-05T10:03:46;30.43;;;20.73;;
25349;SDS011;13302;48.796;11.978;2023-03-05T10:06:41;29.40;;;21.13;;
25349;SDS011;13302;48.796;11.978;2023-03-05T10:09:55;27.40;;;20.00;;
25349;SDS011;13302;48.796;11.978;2023-03-05T10:12:46;26.07;;;19.10;;
25349;SDS011;13302;48.796;11.978;2023-03-05T10:15:57;30.10;;;21.10;;
25349;SDS011;13302;48.796;11.978;2023-03-05T10:28:16;22.57;;;18.27;;
25349;SDS011;13302;48.796;11.978;2023-03-05T10:31:17;27.47;;;18.93;;
25349;SDS011;13302;48.796;11.978;2023-03-05T10:46:16;25.53;;;18.27;;
25349;SDS011;13302;48.796;11.978;2023-03-05T10:49:17;22.97;;;17.13;;
25349;SDS011;13302;48.796;11.978;2023-03-05T10:52:09;25.30;;;18.23;;
25349;SDS011;13302;48.796;11.978;2023-03-05T10:55:11;22.63;;;18.17;;
25349;SDS011;13302;48.796;11.978;2023-03-05T10:58:08;23.40;;;17.57;;
25349;SDS011;13302;48.796;11.978;2023-03-05T11:00:58;25.50;;;18.67;;
25349;SDS011;13302;48.796;11.978;2023-03-05T11:03:58;25.60;;;18.73;;
25349;SDS011;13302;48.796;11.978;2023-03-05T11:06:52;24.60;;;18.50;;
25349;SDS011;13302;48.796;11.978;2023-03-05T11:09:39;26.87;;;20.10;;
25349;SDS011;13302;48.796;11.978;2023-03-05T11:12:26;24.77;;;18.27;;
25349;SDS011;13302;48.796;11.978;2023-03-05T11:18:04;22.17;;;18.13;;
25349;SDS011;13302;48.796;11.978;2023-03-05T11:21:09;25.67;;;18.33;;
25349;SDS011;13302;48.796;11.978;2023-03-05T11:24:04;24.20;;;17.40;;
25349;SDS011;13302;48.796;11.978;2023-03-05T11:26:59;24.10;;;16.17;;
25349;SDS011;13302;48.796;11.978;2023-03-05T11:29:47;23.23;;;17.03;;
25349;SDS011;13302;48.796;11.978;2023-03-05T11:32:34;21.83;;;16.27;;
25349;SDS011;13302;48.796;11.978;2023-03-05T11:35:40;22.67;;;16.13;;
25349;SDS011;13302;48.796;11.978;2023-03-05T11:38:29;19.70;;;15.47;;
25349;SDS011;13302;48.796;11.978;2023-03-05T11:41:17;21.53;;;15.97;;
25349;SDS011;13302;48.796;11.978;2023-03-05T11:44:10;19.90;;;14.77;;
25349;SDS011;13302;48.796;11.978;2023-03-05T11:47:08;22.07;;;15.27;;
25349;SDS011;13302;48.796;11.978;2023-03-05T11:50:09;21.17;;;14.93;;
25349;SDS011;13302;48.796;11.978;2023-03-05T11:53:04;22.97;;;15.50;;
25349;SDS011;13302;48.796;11.978;2023-03-05T11:59:25;20.47;;;14.90;;
25349;SDS011;13302;48.796;11.978;2023-03-05T12:02:23;18.80;;;13.50;;
25349;SDS011;13302;48.796;11.978;2023-03-05T12:05:13;19.57;;;14.30;;
25349;SDS011;13302;48.796;11.978;2023-03-05T12:08:01;19.53;;;14.30;;
25349;SDS011;13302;48.796;11.978;2023-03-05T12:10:51;16.53;;;13.13;;
25349;SDS011;13302;48.796;11.978;2023-03-05T12:13:49;20.23;;;15.47;;
25349;SDS011;13302;48.796;11.978;2023-03-05T12:16:41;24.97;;;16.87;;
25349;SDS011;13302;48.796;11.978;2023-03-05T12:22:22;19.83;;;14.30;;
25349;SDS011;13302;48.796;11.978;2023-03-05T12:31:27;16.90;;;12.10;;
25349;SDS011;13302;48.796;11.978;2023-03-05T12:40:20;14.20;;;11.13;;
25349;SDS011;13302;48.796;11.978;2023-03-05T12:43:30;17.63;;;11.27;;
25349;SDS011;13302;48.796;11.978;2023-03-05T12:52:24;13.30;;;10.57;;
25349;SDS011;13302;48.796;11.978;2023-03-05T12:55:16;12.80;;;9.93;;
25349;SDS011;13302;48.796;11.978;2023-03-05T13:01:28;14.43;;;9.93;;
25349;SDS011;13302;48.796;11.978;2023-03-05T13:04:22;11.53;;;9.73;;
25349;SDS011;13302;48.796;11.978;2023-03-05T13:07:15;13.07;;;9.50;;
25349;SDS011;13302;48.796;11.978;2023-03-05T13:10:03;12.17;;;10.30;;
25349;SDS011;13302;48.796;11.978;2023-03-05T13:12:51;12.90;;;9.43;;
25349;SDS011;13302;48.796;11.978;2023-03-05T13:15:44;14.07;;;9.17;;
25349;SDS011;13302;48.796;11.978;2023-03-05T13:18:40;11.87;;;8.63;;
25349;SDS011;13302;48.796;11.978;2023-03-05T13:21:28;10.33;;;7.97;;
25349;SDS011;13302;48.796;11.978;2023-03-05T13:24:17;9.67;;;8.17;;
25349;SDS011;13302;48.796;11.978;2023-03-05T13:27:23;9.90;;;7.63;;
25349;SDS011;13302;48.796;11.978;2023-03-05T13:30:19;11.33;;;7.83;;
25349;SDS011;13302;48.796;11.978;2023-03-05T13:33:13;14.10;;;8.87;;
25349;SDS011;13302;48.796;11.978;2023-03-05T13:36:03;10.60;;;8.37;;
25349;SDS011;13302;48.796;11.978;2023-03-05T13:38:51;10.60;;;8.43;;
25349;SDS011;13302;48.796;11.978;2023-03-05T13:41:39;9.70;;;8.70;;
25349;SDS011;13302;48.796;11.978;2023-03-05T13:44:26;10.23;;;8.30;;
25349;SDS011;13302;48.796;11.978;2023-03-05T13:47:19;9.63;;;8.03;;
25349;SDS011;13302;48.796;11.978;2023-03-05T13:50:20;9.50;;;8.10;;
25349;SDS011;13302;48.796;11.978;2023-03-05T13:53:13;10.90;;;7.87;;
25349;SDS011;13302;48.796;11.978;2023-03-05T13:56:02;12.17;;;9.93;;
25349;SDS011;13302;48.796;11.978;2023-03-05T13:58:52;11.67;;;10.13;;
25349;SDS011;13302;48.796;11.978;2023-03-05T14:01:41;15.97;;;11.40;;
25349;SDS011;13302;48.796;11.978;2023-03-05T14:04:33;15.40;;;11.70;;
25349;SDS011;13302;48.796;11.978;2023-03-05T14:07:32;25.23;;;17.43;;
25349;SDS011;13302;48.796;11.978;2023-03-05T14:13:18;10.60;;;8.47;;
25349;SDS011;13302;48.796;11.978;2023-03-05T14:18:59;7.47;;;6.73;;
25349;SDS011;13302;48.796;11.978;2023-03-05T14:21:50;7.00;;;6.03;;
25349;SDS011;13302;48.796;11.978;2023-03-05T14:24:37;6.67;;;6.00;;
25349;SDS011;13302;48.796;11.978;2023-03-05T14:27:24;6.80;;;5.50;;
25349;SDS011;13302;48.796;11.978;2023-03-05T14:30:15;6.10;;;5.53;;
25349;SDS011;13302;48.796;11.978;2023-03-05T14:33:05;5.87;;;5.37;;
25349;SDS011;13302;48.796;11.978;2023-03-05T14:35:52;5.50;;;5.00;;
25349;SDS011;13302;48.796;11.978;2023-03-05T14:38:40;4.90;;;4.50;;
25349;SDS011;13302;48.796;11.978;2023-03-05T14:41:36;4.60;;;4.20;;
25349;SDS011;13302;48.796;11.978;2023-03-05T14:44:25;4.90;;;4.47;;
25349;SDS011;13302;48.796;11.978;2023-03-05T14:47:12;6.70;;;5.10;;
25349;SDS011;13302;48.796;11.978;2023-03-05T14:49:59;4.63;;;4.23;;
25349;SDS011;13302;48.796;11.978;2023-03-05T14:52:47;5.30;;;4.17;;
25349;SDS011;13302;48.796;11.978;2023-03-05T14:55:36;6.10;;;4.83;;
25349;SDS011;13302;48.796;11.978;2023-03-05T14:58:25;7.00;;;4.83;;
25349;SDS011;13302;48.796;11.978;2023-03-05T15:01:14;4.53;;;4.13;;
25349;SDS011;13302;48.796;11.978;2023-03-05T15:04:01;4.63;;;4.23;;
25349;SDS011;13302;48.796;11.978;2023-03-05T15:06:48;4.23;;;3.40;;
25349;SDS011;13302;48.796;11.978;2023-03-05T15:09:37;4.60;;;4.20;;
25349;SDS011;13302;48.796;11.978;2023-03-05T15:12:24;4.50;;;4.10;;
25349;SDS011;13302;48.796;11.978;2023-03-05T15:15:12;4.53;;;3.93;;
25349;SDS011;13302;48.796;11.978;2023-03-05T15:18:00;5.23;;;4.20;;
25349;SDS011;13302;48.796;11.978;2023-03-05T15:20:47;5.00;;;4.20;;
25349;SDS011;13302;48.796;11.978;2023-03-05T15:23:35;4.30;;;3.90;;
25349;SDS011;13302;48.796;11.978;2023-03-05T15:26:24;4.30;;;3.90;;
25349;SDS011;13302;48.796;11.978;2023-03-05T15:29:10;4.00;;;3.60;;
25349;SDS011;13302;48.796;11.978;2023-03-05T15:31:58;4.07;;;3.40;;
25349;SDS011;13302;48.796;11.978;2023-03-05T15:34:46;4.03;;;3.63;;
25349;SDS011;13302;48.796;11.978;2023-03-05T15:37:33;4.27;;;3.63;;
25349;SDS011;13302;48.796;11.978;2023-03-05T15:40:21;3.40;;;3.10;;
25349;SDS011;13302;48.796;11.978;2023-03-05T15:43:08;3.87;;;3.50;;
25349;SDS011;13302;48.796;11.978;2023-03-05T15:45:55;3.80;;;3.37;;
25349;SDS011;13302;48.796;11.978;2023-03-05T15:48:42;3.57;;;3.30;;
25349;SDS011;13302;48.796;11.978;2023-03-05T15:51:35;7.63;;;3.30;;
25349;SDS011;13302;48.796;11.978;2023-03-05T15:54:22;3.93;;;3.50;;
25349;SDS011;13302;48.796;11.978;2023-03-05T15:57:09;4.60;;;3.17;;
25349;SDS011;13302;48.796;11.978;2023-03-05T15:59:57;4.13;;;3.70;;
25349;SDS011;13302;48.796;11.978;2023-03-05T16:02:44;5.03;;;3.47;;
25349;SDS011;13302;48.796;11.978;2023-03-05T16:05:32;4.63;;;3.53;;
25349;SDS011;13302;48.796;11.978;2023-03-05T16:08:20;4.33;;;3.80;;
25349;SDS011;13302;48.796;11.978;2023-03-05T16:11:07;4.70;;;4.30;;
25349;SDS011;13302;48.796;11.978;2023-03-05T16:13:55;4.40;;;4.00;;
25349;SDS011;13302;48.796;11.978;2023-03-05T16:16:43;5.80;;;5.30;;
25349;SDS011;13302;48.796;11.978;2023-03-05T16:19:30;6.37;;;5.70;;
25349;SDS011;13302;48.796;11.978;2023-03-05T16:22:21;5.53;;;4.60;;
25349;SDS011;13302;48.796;11.978;2023-03-05T16:25:09;4.20;;;3.80;;
25349;SDS011;13302;48.796;11.978;2023-03-05T16:27:56;4.57;;;4.17;;
25349;SDS011;13302;48.796;11.978;2023-03-05T16:30:43;4.57;;;4.20;;
25349;SDS011;13302;48.796;11.978;2023-03-05T16:33:31;4.23;;;3.93;;
25349;SDS011;13302;48.796;11.978;2023-03-05T16:36:20;4.73;;;4.33;;
25349;SDS011;13302;48.796;11.978;2023-03-05T16:39:11;4.70;;;4.30;;
25349;SDS011;13302;48.796;11.978;2023-03-05T16:41:58;4.70;;;4.30;;
25349;SDS011;13302;48.796;11.978;2023-03-05T16:44:46;4.60;;;4.20;;
25349;SDS011;13302;48.796;11.978;2023-03-05T16:47:33;8.10;;;6.13;;
25349;SDS011;13302;48.796;11.978;2023-03-05T16:50:20;4.73;;;4.20;;
25349;SDS011;13302;48.796;11.978;2023-03-05T16:53:08;4.87;;;4.20;;
25349;SDS011;13302;48.796;11.978;2023-03-05T16:55:55;4.40;;;4.00;;
25349;SDS011;13302;48.796;11.978;2023-03-05T16:58:42;5.10;;;4.60;;
25349;SDS011;13302;48.796;11.978;2023-03-05T17:01:29;5.53;;;4.97;;
25349;SDS011;13302;48.796;11.978;2023-03-05T17:04:16;4.87;;;4.33;;
25349;SDS011;13302;48.796;11.978;2023-03-05T17:07:04;4.80;;;4.13;;
25349;SDS011;13302;48.796;11.978;2023-03-05T17:09:51;5.17;;;3.80;;
25349;SDS011;13302;48.796;11.978;2023-03-05T17:12:38;4.67;;;4.20;;
25349;SDS011;13302;48.796;11.978;2023-03-05T17:15:26;4.97;;;4.47;;
25349;SDS011;13302;48.796;11.978;2023-03-05T17:18:13;5.47;;;4.80;;
25349;SDS011;13302;48.796;11.978;2023-03-05T17:21:01;5.40;;;4.57;;
25349;SDS011;13302;48.796;11.978;2023-03-05T17:23:48;5.00;;;4.50;;
25349;SDS011;13302;48.796;11.978;2023-03-05T17:26:36;6.70;;;5.00;;
25349;SDS011;13302;48.796;11.978;2023-03-05T17:29:23;5.40;;;4.90;;